sensor_id;sensor_type;location;lat;lon;timestamp;P1;durP1;ratioP1;P2;durP2;ratioP2
34896;SDS011;43407;51.828;-2.298;2023-02-28T00:00:46;2.72;;;2.00;;
34896;SDS011;43407;51.828;-2.298;2023-02-28T00:03:11;4.78;;;2.05;;
34896;SDS011;43407;51.828;-2.298;2023-02-28T00:05:37;3.00;;;1.90;;
34896;SDS011;43407;51.828;-2.298;2023-02-28T00:08:02;3.88;;;2.20;;
34896;SDS011;43407;51.828;-2.298;2023-02-28T00:10:29;7.20;;;2.50;;
34896;SDS011;43407;51.828;-2.298;2023-02-28T00:12:55;2.97;;;2.00;;
34896;SDS011;43407;51.828;-2.298;2023-02-28T00:15:24;4.78;;;2.60;;
34896;SDS011;43407;51.828;-2.298;2023-02-28T00:17:50;3.05;;;2.28;;
34896;SDS011;43407;51.828;-2.298;2023-02-28T00:20:16;4.78;;;2.85;;
34896;SDS011;43407;51.828;-2.298;2023-02-28T00:22:43;3.92;;;2.72;;
34896;SDS011;43407;51.828;-2.298;2023-02-28T00:25:11;4.03;;;2.60;;
34896;SDS011;43407;51.828;-2.298;2023-02-28T00:27:38;5.30;;;2.92;;
34896;SDS011;43407;51.828;-2.298;2023-02-28T00:30:05;5.28;;;3.03;;
34896;SDS011;43407;51.828;-2.298;2023-02-28T00:32:32;3.83;;;2.42;;
34896;SDS011;43407;51.828;-2.298;2023-02-28T00:34:57;4.95;;;2.30;;
34896;SDS011;43407;51.828;-2.298;2023-02-28T00:37:23;2.75;;;2.03;;
34896;SDS011;43407;51.828;-2.298;2023-02-28T00:39:48;2.65;;;2.00;;
34896;SDS011;43407;51.828;-2.298;2023-02-28T00:42:14;2.92;;;2.33;;
34896;SDS011;43407;51.828;-2.298;2023-02-28T00:44:39;4.70;;;2.80;;
34896;SDS011;43407;51.828;-2.298;2023-02-28T00:47:05;2.63;;;2.28;;
34896;SDS011;43407;51.828;-2.298;2023-02-28T00:49:30;3.28;;;2.67;;
34896;SDS011;43407;51.828;-2.298;2023-02-28T00:51:56;3.90;;;2.50;;
34896;SDS011;43407;51.828;-2.298;2023-02-28T00:54:22;5.20;;;2.20;;
34896;SDS011;43407;51.828;-2.298;2023-02-28T00:56:48;4.13;;;2.50;;
34896;SDS011;43407;51.828;-2.298;2023-02-28T00:59:14;4.35;;;2.08;;
34896;SDS011;43407;51.828;-2.298;2023-02-28T01:01:40;3.58;;;2.55;;
34896;SDS011;43407;51.828;-2.298;2023-02-28T01:04:07;2.35;;;2.13;;
34896;SDS011;43407;51.828;-2.298;2023-02-28T01:06:32;2.85;;;2.20;;
34896;SDS011;43407;51.828;-2.298;2023-02-28T01:08:58;2.95;;;2.22;;
34896;SDS011;43407;51.828;-2.298;2023-02-28T01:11:25;3.47;;;2.40;;
34896;SDS011;43407;51.828;-2.298;2023-02-28T01:13:50;2.70;;;2.42;;
34896;SDS011;43407;51.828;-2.298;2023-02-28T01:16:16;2.90;;;2.60;;
34896;SDS011;43407;51.828;-2.298;2023-02-28T01:18:42;3.88;;;3.00;;
34896;SDS011;43407;51.828;-2.298;2023-02-28T01:21:11;4.30;;;2.60;;
34896;SDS011;43407;51.828;-2.298;2023-02-28T01:23:39;3.00;;;2.05;;
34896;SDS011;43407;51.828;-2.298;2023-02-28T01:28:32;2.95;;;2.30;;
34896;SDS011;43407;51.828;-2.298;2023-02-28T01:30:58;2.75;;;2.35;;
34896;SDS011;43407;51.828;-2.298;2023-02-28T01:33:23;2.65;;;2.30;;
34896;SDS011;43407;51.828;-2.298;2023-02-28T01:35:49;2.78;;;2.50;;
34896;SDS011;43407;51.828;-2.298;2023-02-28T01:38:15;2.35;;;2.00;;
34896;SDS011;43407;51.828;-2.298;2023-02-28T01:40:40;4.38;;;2.33;;
34896;SDS011;43407;51.828;-2.298;2023-02-28T01:43:17;2.80;;;2.17;;
34896;SDS011;43407;51.828;-2.298;2023-02-28T01:45:49;3.45;;;2.22;;
34896;SDS011;43407;51.828;-2.298;2023-02-28T01:48:15;3.67;;;2.55;;
34896;SDS011;43407;51.828;-2.298;2023-02-28T01:50:41;3.92;;;2.65;;
34896;SDS011;43407;51.828;-2.298;2023-02-28T01:53:10;3.10;;;2.15;;
34896;SDS011;43407;51.828;-2.298;2023-02-28T01:55:39;2.83;;;2.20;;
34896;SDS011;43407;51.828;-2.298;2023-02-28T01:58:06;3.00;;;2.47;;
34896;SDS011;43407;51.828;-2.298;2023-02-28T02:00:34;3.03;;;2.13;;
34896;SDS011;43407;51.828;-2.298;2023-02-28T02:03:00;4.22;;;2.60;;
34896;SDS011;43407;51.828;-2.298;2023-02-28T02:05:33;2.75;;;2.08;;
34896;SDS011;43407;51.828;-2.298;2023-02-28T02:08:02;1.83;;;1.73;;
34896;SDS011;43407;51.828;-2.298;2023-02-28T02:10:44;2.78;;;2.10;;
34896;SDS011;43407;51.828;-2.298;2023-02-28T02:18:57;2.72;;;2.42;;
34896;SDS011;43407;51.828;-2.298;2023-02-28T02:26:56;4.00;;;2.70;;
34896;SDS011;43407;51.828;-2.298;2023-02-28T02:37:51;3.97;;;3.67;;
34896;SDS011;43407;51.828;-2.298;2023-02-28T02:40:25;4.88;;;3.90;;
34896;SDS011;43407;51.828;-2.298;2023-02-28T02:43:00;4.05;;;3.45;;
34896;SDS011;43407;51.828;-2.298;2023-02-28T02:45:32;5.07;;;4.10;;
34896;SDS011;43407;51.828;-2.298;2023-02-28T02:48:03;6.03;;;4.82;;
34896;SDS011;43407;51.828;-2.298;2023-02-28T02:50:36;7.72;;;5.07;;
34896;SDS011;43407;51.828;-2.298;2023-02-28T02:53:04;5.22;;;4.72;;
34896;SDS011;43407;51.828;-2.298;2023-02-28T02:55:31;4.82;;;4.35;;
34896;SDS011;43407;51.828;-2.298;2023-02-28T02:58:01;5.88;;;5.15;;
34896;SDS011;43407;51.828;-2.298;2023-02-28T03:00:39;6.00;;;5.03;;
34896;SDS011;43407;51.828;-2.298;2023-02-28T03:03:07;5.68;;;4.85;;
34896;SDS011;43407;51.828;-2.298;2023-02-28T03:05:48;6.82;;;4.88;;
34896;SDS011;43407;51.828;-2.298;2023-02-28T03:08:14;8.15;;;5.28;;
34896;SDS011;43407;51.828;-2.298;2023-02-28T03:10:41;6.88;;;5.45;;
34896;SDS011;43407;51.828;-2.298;2023-02-28T03:13:33;6.45;;;5.13;;
34896;SDS011;43407;51.828;-2.298;2023-02-28T03:16:13;5.95;;;4.57;;
34896;SDS011;43407;51.828;-2.298;2023-02-28T03:21:43;5.88;;;5.28;;
34896;SDS011;43407;51.828;-2.298;2023-02-28T03:26:45;6.13;;;4.97;;
34896;SDS011;43407;51.828;-2.298;2023-02-28T03:29:17;5.22;;;4.55;;
34896;SDS011;43407;51.828;-2.298;2023-02-28T03:31:50;4.32;;;3.92;;
34896;SDS011;43407;51.828;-2.298;2023-02-28T03:34:26;4.60;;;4.20;;
34896;SDS011;43407;51.828;-2.298;2023-02-28T03:36:55;6.55;;;5.15;;
34896;SDS011;43407;51.828;-2.298;2023-02-28T03:39:46;5.10;;;4.60;;
34896;SDS011;43407;51.828;-2.298;2023-02-28T03:42:14;4.65;;;3.55;;
34896;SDS011;43407;51.828;-2.298;2023-02-28T03:44:42;5.00;;;4.50;;
34896;SDS011;43407;51.828;-2.298;2023-02-28T03:47:12;4.25;;;3.85;;
34896;SDS011;43407;51.828;-2.298;2023-02-28T03:49:59;4.35;;;3.95;;
34896;SDS011;43407;51.828;-2.298;2023-02-28T03:52:47;4.45;;;4.05;;
34896;SDS011;43407;51.828;-2.298;2023-02-28T03:55:26;4.88;;;4.32;;
34896;SDS011;43407;51.828;-2.298;2023-02-28T03:57:58;4.28;;;3.88;;
34896;SDS011;43407;51.828;-2.298;2023-02-28T04:00:31;6.00;;;4.82;;
34896;SDS011;43407;51.828;-2.298;2023-02-28T04:03:02;4.53;;;4.13;;
34896;SDS011;43407;51.828;-2.298;2023-02-28T04:05:27;4.57;;;4.18;;
34896;SDS011;43407;51.828;-2.298;2023-02-28T04:07:54;4.63;;;4.22;;
34896;SDS011;43407;51.828;-2.298;2023-02-28T04:10:20;5.15;;;4.57;;
34896;SDS011;43407;51.828;-2.298;2023-02-28T04:12:45;4.00;;;3.70;;
34896;SDS011;43407;51.828;-2.298;2023-02-28T04:15:11;4.53;;;4.13;;
34896;SDS011;43407;51.828;-2.298;2023-02-28T04:17:36;4.38;;;3.97;;
34896;SDS011;43407;51.828;-2.298;2023-02-28T04:20:02;7.72;;;3.75;;
34896;SDS011;43407;51.828;-2.298;2023-02-28T04:22:28;16.75;;;5.53;;
34896;SDS011;43407;51.828;-2.298;2023-02-28T04:24:54;4.85;;;3.42;;
34896;SDS011;43407;51.828;-2.298;2023-02-28T04:27:20;6.97;;;4.40;;
34896;SDS011;43407;51.828;-2.298;2023-02-28T04:29:46;35.58;;;5.80;;
34896;SDS011;43407;51.828;-2.298;2023-02-28T04:32:12;6.50;;;4.68;;
34896;SDS011;43407;51.828;-2.298;2023-02-28T04:34:38;20.35;;;5.50;;
34896;SDS011;43407;51.828;-2.298;2023-02-28T04:37:04;5.28;;;4.80;;
34896;SDS011;43407;51.828;-2.298;2023-02-28T04:39:30;6.78;;;4.85;;
34896;SDS011;43407;51.828;-2.298;2023-02-28T04:41:55;4.88;;;4.47;;
34896;SDS011;43407;51.828;-2.298;2023-02-28T04:44:21;5.43;;;4.93;;
34896;SDS011;43407;51.828;-2.298;2023-02-28T04:46:48;4.40;;;4.00;;
34896;SDS011;43407;51.828;-2.298;2023-02-28T04:49:13;4.57;;;4.18;;
34896;SDS011;43407;51.828;-2.298;2023-02-28T04:51:39;4.90;;;4.50;;
34896;SDS011;43407;51.828;-2.298;2023-02-28T04:54:05;5.05;;;4.57;;
34896;SDS011;43407;51.828;-2.298;2023-02-28T04:56:31;11.70;;;4.63;;
34896;SDS011;43407;51.828;-2.298;2023-02-28T04:58:57;5.70;;;4.60;;
34896;SDS011;43407;51.828;-2.298;2023-02-28T05:01:26;4.57;;;4.05;;
34896;SDS011;43407;51.828;-2.298;2023-02-28T05:03:54;5.38;;;4.85;;
34896;SDS011;43407;51.828;-2.298;2023-02-28T05:06:21;6.20;;;4.63;;
34896;SDS011;43407;51.828;-2.298;2023-02-28T05:08:48;4.43;;;4.07;;
34896;SDS011;43407;51.828;-2.298;2023-02-28T05:11:21;4.43;;;4.13;;
34896;SDS011;43407;51.828;-2.298;2023-02-28T05:13:49;4.20;;;3.80;;
34896;SDS011;43407;51.828;-2.298;2023-02-28T05:16:15;4.38;;;3.97;;
34896;SDS011;43407;51.828;-2.298;2023-02-28T05:18:40;4.85;;;4.45;;
34896;SDS011;43407;51.828;-2.298;2023-02-28T05:21:12;5.28;;;4.78;;
34896;SDS011;43407;51.828;-2.298;2023-02-28T05:23:51;5.38;;;4.90;;
34896;SDS011;43407;51.828;-2.298;2023-02-28T05:26:17;4.80;;;4.35;;
34896;SDS011;43407;51.828;-2.298;2023-02-28T05:28:43;5.22;;;4.72;;
34896;SDS011;43407;51.828;-2.298;2023-02-28T05:31:12;5.47;;;4.97;;
34896;SDS011;43407;51.828;-2.298;2023-02-28T05:33:37;5.15;;;4.55;;
34896;SDS011;43407;51.828;-2.298;2023-02-28T05:36:03;5.30;;;4.80;;
34896;SDS011;43407;51.828;-2.298;2023-02-28T05:38:29;5.30;;;4.75;;
34896;SDS011;43407;51.828;-2.298;2023-02-28T05:40:55;5.57;;;5.07;;
34896;SDS011;43407;51.828;-2.298;2023-02-28T05:43:21;4.78;;;4.38;;
34896;SDS011;43407;51.828;-2.298;2023-02-28T05:45:46;5.20;;;4.45;;
34896;SDS011;43407;51.828;-2.298;2023-02-28T05:48:12;5.38;;;4.88;;
34896;SDS011;43407;51.828;-2.298;2023-02-28T05:50:37;4.50;;;4.10;;
34896;SDS011;43407;51.828;-2.298;2023-02-28T05:53:03;4.82;;;4.43;;
34896;SDS011;43407;51.828;-2.298;2023-02-28T05:55:29;5.32;;;4.82;;
34896;SDS011;43407;51.828;-2.298;2023-02-28T05:57:54;5.75;;;5.25;;
34896;SDS011;43407;51.828;-2.298;2023-02-28T06:00:21;10.25;;;5.18;;
34896;SDS011;43407;51.828;-2.298;2023-02-28T06:02:46;5.13;;;4.32;;
34896;SDS011;43407;51.828;-2.298;2023-02-28T06:05:16;5.43;;;4.93;;
34896;SDS011;43407;51.828;-2.298;2023-02-28T06:07:42;4.57;;;4.18;;
34896;SDS011;43407;51.828;-2.298;2023-02-28T06:10:09;4.75;;;4.35;;
34896;SDS011;43407;51.828;-2.298;2023-02-28T06:12:35;5.30;;;4.80;;
34896;SDS011;43407;51.828;-2.298;2023-02-28T06:15:00;5.32;;;4.82;;
34896;SDS011;43407;51.828;-2.298;2023-02-28T06:17:26;6.20;;;5.35;;
34896;SDS011;43407;51.828;-2.298;2023-02-28T06:19:52;5.75;;;5.07;;
34896;SDS011;43407;51.828;-2.298;2023-02-28T06:22:17;7.40;;;4.22;;
34896;SDS011;43407;51.828;-2.298;2023-02-28T06:24:43;14.82;;;4.80;;
34896;SDS011;43407;51.828;-2.298;2023-02-28T06:27:08;5.78;;;5.28;;
34896;SDS011;43407;51.828;-2.298;2023-02-28T06:29:34;6.10;;;5.50;;
34896;SDS011;43407;51.828;-2.298;2023-02-28T06:32:00;6.82;;;6.07;;
34896;SDS011;43407;51.828;-2.298;2023-02-28T06:34:26;6.10;;;5.50;;
34896;SDS011;43407;51.828;-2.298;2023-02-28T06:36:52;5.18;;;4.68;;
34896;SDS011;43407;51.828;-2.298;2023-02-28T06:39:18;54.05;;;6.53;;
34896;SDS011;43407;51.828;-2.298;2023-02-28T06:41:44;43.85;;;5.85;;
34896;SDS011;43407;51.828;-2.298;2023-02-28T06:44:17;8.57;;;5.80;;
34896;SDS011;43407;51.828;-2.298;2023-02-28T06:46:43;6.60;;;5.85;;
34896;SDS011;43407;51.828;-2.298;2023-02-28T06:49:09;31.65;;;6.30;;
34896;SDS011;43407;51.828;-2.298;2023-02-28T06:51:37;5.85;;;5.10;;
34896;SDS011;43407;51.828;-2.298;2023-02-28T06:54:04;5.70;;;5.20;;
34896;SDS011;43407;51.828;-2.298;2023-02-28T06:56:30;5.97;;;5.47;;
34896;SDS011;43407;51.828;-2.298;2023-02-28T06:58:56;6.28;;;5.68;;
34896;SDS011;43407;51.828;-2.298;2023-02-28T07:01:22;6.07;;;5.47;;
34896;SDS011;43407;51.828;-2.298;2023-02-28T07:03:49;5.82;;;5.25;;
34896;SDS011;43407;51.828;-2.298;2023-02-28T07:06:17;6.00;;;5.40;;
34896;SDS011;43407;51.828;-2.298;2023-02-28T07:08:44;10.27;;;5.18;;
34896;SDS011;43407;51.828;-2.298;2023-02-28T07:11:09;5.50;;;5.00;;
34896;SDS011;43407;51.828;-2.298;2023-02-28T07:13:35;5.95;;;5.45;;
34896;SDS011;43407;51.828;-2.298;2023-02-28T07:16:03;5.90;;;5.40;;
34896;SDS011;43407;51.828;-2.298;2023-02-28T07:18:30;5.38;;;4.88;;
34896;SDS011;43407;51.828;-2.298;2023-02-28T07:20:55;10.90;;;4.60;;
34896;SDS011;43407;51.828;-2.298;2023-02-28T07:23:21;76.47;;;7.22;;
34896;SDS011;43407;51.828;-2.298;2023-02-28T07:25:47;24.67;;;6.90;;
34896;SDS011;43407;51.828;-2.298;2023-02-28T07:28:13;13.85;;;6.15;;
34896;SDS011;43407;51.828;-2.298;2023-02-28T07:30:39;7.25;;;6.55;;
34896;SDS011;43407;51.828;-2.298;2023-02-28T07:33:04;7.10;;;6.40;;
34896;SDS011;43407;51.828;-2.298;2023-02-28T07:35:30;11.10;;;7.00;;
34896;SDS011;43407;51.828;-2.298;2023-02-28T07:37:59;32.33;;;8.07;;
34896;SDS011;43407;51.828;-2.298;2023-02-28T07:40:24;10.98;;;6.47;;
34896;SDS011;43407;51.828;-2.298;2023-02-28T07:42:50;41.55;;;9.55;;
34896;SDS011;43407;51.828;-2.298;2023-02-28T07:45:16;9.48;;;8.32;;
34896;SDS011;43407;51.828;-2.298;2023-02-28T07:47:42;27.67;;;9.27;;
34896;SDS011;43407;51.828;-2.298;2023-02-28T07:50:10;41.85;;;10.35;;
34896;SDS011;43407;51.828;-2.298;2023-02-28T07:52:37;11.57;;;9.75;;
34896;SDS011;43407;51.828;-2.298;2023-02-28T07:55:04;76.85;;;12.68;;
34896;SDS011;43407;51.828;-2.298;2023-02-28T07:57:30;19.35;;;11.65;;
34896;SDS011;43407;51.828;-2.298;2023-02-28T07:59:56;14.93;;;11.63;;
34896;SDS011;43407;51.828;-2.298;2023-02-28T08:02:21;18.13;;;11.52;;
34896;SDS011;43407;51.828;-2.298;2023-02-28T08:04:47;15.10;;;11.23;;
34896;SDS011;43407;51.828;-2.298;2023-02-28T08:07:13;30.95;;;12.27;;
34896;SDS011;43407;51.828;-2.298;2023-02-28T08:09:39;17.33;;;12.23;;
34896;SDS011;43407;51.828;-2.298;2023-02-28T08:12:06;19.52;;;12.07;;
34896;SDS011;43407;51.828;-2.298;2023-02-28T08:14:32;14.65;;;11.77;;
34896;SDS011;43407;51.828;-2.298;2023-02-28T08:16:58;17.80;;;11.82;;
34896;SDS011;43407;51.828;-2.298;2023-02-28T08:19:23;18.58;;;12.05;;
34896;SDS011;43407;51.828;-2.298;2023-02-28T08:21:49;14.63;;;11.45;;
34896;SDS011;43407;51.828;-2.298;2023-02-28T08:24:14;13.93;;;10.73;;
34896;SDS011;43407;51.828;-2.298;2023-02-28T08:26:40;17.55;;;11.48;;
34896;SDS011;43407;51.828;-2.298;2023-02-28T08:29:05;13.20;;;10.50;;
34896;SDS011;43407;51.828;-2.298;2023-02-28T08:31:31;23.75;;;11.32;;
34896;SDS011;43407;51.828;-2.298;2023-02-28T08:33:57;12.32;;;9.93;;
34896;SDS011;43407;51.828;-2.298;2023-02-28T08:36:23;12.82;;;10.82;;
34896;SDS011;43407;51.828;-2.298;2023-02-28T08:38:50;12.68;;;10.40;;
34896;SDS011;43407;51.828;-2.298;2023-02-28T08:41:15;17.70;;;10.35;;
34896;SDS011;43407;51.828;-2.298;2023-02-28T08:43:41;13.60;;;11.45;;
34896;SDS011;43407;51.828;-2.298;2023-02-28T08:46:07;17.20;;;11.50;;
34896;SDS011;43407;51.828;-2.298;2023-02-28T08:48:33;13.43;;;10.70;;
34896;SDS011;43407;51.828;-2.298;2023-02-28T08:51:07;13.95;;;11.05;;
34896;SDS011;43407;51.828;-2.298;2023-02-28T08:53:35;12.55;;;10.52;;
34896;SDS011;43407;51.828;-2.298;2023-02-28T08:56:05;11.90;;;9.85;;
34896;SDS011;43407;51.828;-2.298;2023-02-28T08:58:33;12.85;;;10.65;;
34896;SDS011;43407;51.828;-2.298;2023-02-28T09:00:59;13.15;;;10.73;;
34896;SDS011;43407;51.828;-2.298;2023-02-28T09:03:25;12.73;;;9.88;;
34896;SDS011;43407;51.828;-2.298;2023-02-28T09:05:59;12.90;;;10.52;;
34896;SDS011;43407;51.828;-2.298;2023-02-28T09:08:25;15.23;;;12.02;;
34896;SDS011;43407;51.828;-2.298;2023-02-28T09:10:52;17.23;;;12.25;;
34896;SDS011;43407;51.828;-2.298;2023-02-28T09:13:19;14.98;;;11.68;;
34896;SDS011;43407;51.828;-2.298;2023-02-28T09:15:45;14.68;;;12.68;;
34896;SDS011;43407;51.828;-2.298;2023-02-28T09:18:10;17.13;;;12.93;;
34896;SDS011;43407;51.828;-2.298;2023-02-28T09:20:40;17.95;;;13.98;;
34896;SDS011;43407;51.828;-2.298;2023-02-28T09:23:07;17.45;;;14.40;;
34896;SDS011;43407;51.828;-2.298;2023-02-28T09:25:33;19.75;;;14.13;;
34896;SDS011;43407;51.828;-2.298;2023-02-28T09:27:59;17.35;;;14.20;;
34896;SDS011;43407;51.828;-2.298;2023-02-28T09:30:25;18.08;;;13.35;;
34896;SDS011;43407;51.828;-2.298;2023-02-28T09:32:50;19.38;;;13.68;;
34896;SDS011;43407;51.828;-2.298;2023-02-28T09:35:19;19.63;;;14.63;;
34896;SDS011;43407;51.828;-2.298;2023-02-28T09:37:51;17.42;;;13.07;;
34896;SDS011;43407;51.828;-2.298;2023-02-28T09:40:17;17.23;;;13.40;;
34896;SDS011;43407;51.828;-2.298;2023-02-28T09:42:48;15.85;;;12.65;;
34896;SDS011;43407;51.828;-2.298;2023-02-28T09:45:26;16.67;;;12.88;;
34896;SDS011;43407;51.828;-2.298;2023-02-28T09:48:04;17.60;;;13.77;;
34896;SDS011;43407;51.828;-2.298;2023-02-28T09:50:36;16.75;;;13.88;;
34896;SDS011;43407;51.828;-2.298;2023-02-28T09:53:11;21.00;;;14.98;;
34896;SDS011;43407;51.828;-2.298;2023-02-28T09:56:13;19.45;;;14.45;;
34896;SDS011;43407;51.828;-2.298;2023-02-28T09:58:49;18.57;;;15.87;;
34896;SDS011;43407;51.828;-2.298;2023-02-28T10:01:37;18.83;;;14.10;;
34896;SDS011;43407;51.828;-2.298;2023-02-28T10:09:57;14.07;;;12.25;;
34896;SDS011;43407;51.828;-2.298;2023-02-28T10:12:27;14.52;;;12.70;;
34896;SDS011;43407;51.828;-2.298;2023-02-28T10:14:54;16.27;;;12.63;;
34896;SDS011;43407;51.828;-2.298;2023-02-28T10:17:24;17.05;;;12.05;;
34896;SDS011;43407;51.828;-2.298;2023-02-28T10:20:02;13.75;;;10.98;;
34896;SDS011;43407;51.828;-2.298;2023-02-28T10:22:38;12.15;;;10.85;;
34896;SDS011;43407;51.828;-2.298;2023-02-28T10:25:18;12.15;;;10.02;;
34896;SDS011;43407;51.828;-2.298;2023-02-28T10:27:45;12.10;;;10.15;;
34896;SDS011;43407;51.828;-2.298;2023-02-28T10:30:11;11.88;;;9.73;;
34896;SDS011;43407;51.828;-2.298;2023-02-28T10:32:38;11.68;;;10.18;;
34896;SDS011;43407;51.828;-2.298;2023-02-28T10:37:42;10.30;;;9.20;;
34896;SDS011;43407;51.828;-2.298;2023-02-28T10:40:33;11.88;;;9.60;;
34896;SDS011;43407;51.828;-2.298;2023-02-28T10:45:33;10.30;;;9.13;;
34896;SDS011;43407;51.828;-2.298;2023-02-28T10:50:44;11.65;;;8.85;;
34896;SDS011;43407;51.828;-2.298;2023-02-28T10:58:22;10.73;;;8.20;;
34896;SDS011;43407;51.828;-2.298;2023-02-28T11:00:49;9.65;;;8.65;;
34896;SDS011;43407;51.828;-2.298;2023-02-28T11:03:31;8.63;;;7.82;;
34896;SDS011;43407;51.828;-2.298;2023-02-28T11:06:03;10.25;;;7.80;;
34896;SDS011;43407;51.828;-2.298;2023-02-28T11:08:30;9.25;;;7.53;;
34896;SDS011;43407;51.828;-2.298;2023-02-28T11:10:56;9.02;;;7.68;;
34896;SDS011;43407;51.828;-2.298;2023-02-28T11:13:29;8.10;;;7.30;;
34896;SDS011;43407;51.828;-2.298;2023-02-28T11:15:59;7.75;;;6.38;;
34896;SDS011;43407;51.828;-2.298;2023-02-28T11:20:56;7.22;;;6.53;;
34896;SDS011;43407;51.828;-2.298;2023-02-28T11:23:24;7.30;;;6.60;;
34896;SDS011;43407;51.828;-2.298;2023-02-28T11:25:51;8.05;;;7.25;;
34896;SDS011;43407;51.828;-2.298;2023-02-28T11:28:23;7.38;;;6.57;;
34896;SDS011;43407;51.828;-2.298;2023-02-28T11:38:55;7.63;;;6.80;;
34896;SDS011;43407;51.828;-2.298;2023-02-28T11:47:04;8.60;;;7.57;;
34896;SDS011;43407;51.828;-2.298;2023-02-28T11:49:37;8.40;;;7.50;;
34896;SDS011;43407;51.828;-2.298;2023-02-28T11:57:35;8.45;;;7.60;;
34896;SDS011;43407;51.828;-2.298;2023-02-28T12:00:04;8.82;;;7.70;;
34896;SDS011;43407;51.828;-2.298;2023-02-28T12:05:31;6.90;;;6.15;;
34896;SDS011;43407;51.828;-2.298;2023-02-28T12:11:02;6.80;;;6.10;;
34896;SDS011;43407;51.828;-2.298;2023-02-28T12:13:48;7.28;;;6.30;;
34896;SDS011;43407;51.828;-2.298;2023-02-28T12:26:56;6.20;;;5.60;;
34896;SDS011;43407;51.828;-2.298;2023-02-28T12:29:24;6.07;;;5.47;;
34896;SDS011;43407;51.828;-2.298;2023-02-28T12:31:55;6.75;;;6.13;;
34896;SDS011;43407;51.828;-2.298;2023-02-28T12:34:44;7.05;;;6.35;;
34896;SDS011;43407;51.828;-2.298;2023-02-28T12:37:14;6.18;;;5.57;;
34896;SDS011;43407;51.828;-2.298;2023-02-28T12:40:05;7.20;;;6.03;;
34896;SDS011;43407;51.828;-2.298;2023-02-28T12:42:37;7.00;;;6.30;;
34896;SDS011;43407;51.828;-2.298;2023-02-28T12:47:34;6.00;;;5.40;;
34896;SDS011;43407;51.828;-2.298;2023-02-28T12:50:02;5.07;;;4.60;;
34896;SDS011;43407;51.828;-2.298;2023-02-28T12:55:40;5.53;;;4.68;;
34896;SDS011;43407;51.828;-2.298;2023-02-28T12:58:22;5.80;;;5.20;;
34896;SDS011;43407;51.828;-2.298;2023-02-28T13:09:07;5.95;;;4.97;;
34896;SDS011;43407;51.828;-2.298;2023-02-28T13:14:29;5.28;;;4.78;;
34896;SDS011;43407;51.828;-2.298;2023-02-28T13:27:21;5.70;;;4.72;;
34896;SDS011;43407;51.828;-2.298;2023-02-28T13:29:49;5.28;;;4.78;;
34896;SDS011;43407;51.828;-2.298;2023-02-28T13:39:49;3.97;;;3.20;;
34896;SDS011;43407;51.828;-2.298;2023-02-28T13:45:29;2.80;;;2.60;;
34896;SDS011;43407;51.828;-2.298;2023-02-28T13:47:42;3.80;;;3.50;;
34896;SDS011;43407;51.828;-2.298;2023-02-28T13:55:37;4.10;;;3.70;;
34896;SDS011;43407;51.828;-2.298;2023-02-28T14:01:09;5.30;;;3.80;;
34896;SDS011;43407;51.828;-2.298;2023-02-28T14:06:50;5.55;;;4.25;;
34896;SDS011;43407;51.828;-2.298;2023-02-28T14:09:30;4.30;;;3.90;;
34896;SDS011;43407;51.828;-2.298;2023-02-28T14:12:27;4.07;;;3.67;;
34896;SDS011;43407;51.828;-2.298;2023-02-28T14:15:01;4.57;;;4.18;;
34896;SDS011;43407;51.828;-2.298;2023-02-28T14:17:28;4.95;;;4.30;;
34896;SDS011;43407;51.828;-2.298;2023-02-28T14:19:54;5.32;;;4.50;;
34896;SDS011;43407;51.828;-2.298;2023-02-28T14:25:34;7.43;;;5.78;;
34896;SDS011;43407;51.828;-2.298;2023-02-28T14:28:17;7.68;;;6.13;;
34896;SDS011;43407;51.828;-2.298;2023-02-28T14:38:27;5.18;;;4.65;;
34896;SDS011;43407;51.828;-2.298;2023-02-28T14:40:55;4.40;;;3.90;;
34896;SDS011;43407;51.828;-2.298;2023-02-28T14:43:23;5.53;;;4.35;;
34896;SDS011;43407;51.828;-2.298;2023-02-28T14:45:51;4.95;;;4.45;;
34896;SDS011;43407;51.828;-2.298;2023-02-28T14:48:21;5.05;;;4.55;;
34896;SDS011;43407;51.828;-2.298;2023-02-28T14:50:57;4.72;;;4.32;;
34896;SDS011;43407;51.828;-2.298;2023-02-28T14:53:28;4.15;;;3.85;;
34896;SDS011;43407;51.828;-2.298;2023-02-28T14:55:55;5.05;;;3.85;;
34896;SDS011;43407;51.828;-2.298;2023-02-28T14:58:27;4.10;;;3.70;;
34896;SDS011;43407;51.828;-2.298;2023-02-28T15:00:55;4.10;;;3.80;;
34896;SDS011;43407;51.828;-2.298;2023-02-28T15:03:23;4.43;;;4.03;;
34896;SDS011;43407;51.828;-2.298;2023-02-28T15:05:59;4.85;;;3.53;;
34896;SDS011;43407;51.828;-2.298;2023-02-28T15:08:26;5.40;;;3.60;;
34896;SDS011;43407;51.828;-2.298;2023-02-28T15:13:52;3.53;;;3.22;;
34896;SDS011;43407;51.828;-2.298;2023-02-28T15:16:21;3.85;;;3.55;;
34896;SDS011;43407;51.828;-2.298;2023-02-28T15:21:24;4.55;;;3.40;;
34896;SDS011;43407;51.828;-2.298;2023-02-28T15:26:55;4.45;;;2.95;;
34896;SDS011;43407;51.828;-2.298;2023-02-28T15:29:23;6.03;;;3.05;;
34896;SDS011;43407;51.828;-2.298;2023-02-28T15:31:53;4.07;;;2.85;;
34896;SDS011;43407;51.828;-2.298;2023-02-28T15:34:38;3.50;;;3.20;;
34896;SDS011;43407;51.828;-2.298;2023-02-28T15:39:50;3.17;;;2.90;;
34896;SDS011;43407;51.828;-2.298;2023-02-28T15:42:19;3.80;;;3.50;;
34896;SDS011;43407;51.828;-2.298;2023-02-28T15:44:45;3.88;;;3.58;;
34896;SDS011;43407;51.828;-2.298;2023-02-28T15:47:18;3.83;;;3.50;;
34896;SDS011;43407;51.828;-2.298;2023-02-28T15:49:45;5.32;;;3.22;;
34896;SDS011;43407;51.828;-2.298;2023-02-28T15:52:16;6.60;;;3.47;;
34896;SDS011;43407;51.828;-2.298;2023-02-28T15:54:44;4.57;;;3.10;;
34896;SDS011;43407;51.828;-2.298;2023-02-28T15:57:13;7.15;;;3.13;;
34896;SDS011;43407;51.828;-2.298;2023-02-28T15:59:50;3.75;;;3.28;;
34896;SDS011;43407;51.828;-2.298;2023-02-28T16:02:30;4.05;;;3.15;;
34896;SDS011;43407;51.828;-2.298;2023-02-28T16:07:31;2.92;;;2.70;;
34896;SDS011;43407;51.828;-2.298;2023-02-28T16:09:58;4.03;;;2.83;;
34896;SDS011;43407;51.828;-2.298;2023-02-28T16:12:28;2.70;;;2.50;;
34896;SDS011;43407;51.828;-2.298;2023-02-28T16:14:56;2.78;;;2.47;;
34896;SDS011;43407;51.828;-2.298;2023-02-28T16:17:24;2.85;;;2.65;;
34896;SDS011;43407;51.828;-2.298;2023-02-28T16:19:52;3.17;;;2.70;;
34896;SDS011;43407;51.828;-2.298;2023-02-28T16:22:19;4.82;;;2.95;;
34896;SDS011;43407;51.828;-2.298;2023-02-28T16:24:44;2.55;;;2.35;;
34896;SDS011;43407;51.828;-2.298;2023-02-28T16:27:28;3.28;;;2.95;;
34896;SDS011;43407;51.828;-2.298;2023-02-28T16:29:56;2.70;;;2.50;;
34896;SDS011;43407;51.828;-2.298;2023-02-28T16:32:22;3.67;;;3.28;;
34896;SDS011;43407;51.828;-2.298;2023-02-28T16:34:48;3.17;;;2.72;;
34896;SDS011;43407;51.828;-2.298;2023-02-28T16:37:14;2.78;;;2.53;;
34896;SDS011;43407;51.828;-2.298;2023-02-28T16:39:42;3.30;;;2.88;;
34896;SDS011;43407;51.828;-2.298;2023-02-28T16:42:14;3.80;;;2.75;;
34896;SDS011;43407;51.828;-2.298;2023-02-28T16:44:43;3.78;;;3.38;;
34896;SDS011;43407;51.828;-2.298;2023-02-28T16:47:08;2.95;;;2.65;;
34896;SDS011;43407;51.828;-2.298;2023-02-28T16:49:35;2.90;;;2.60;;
34896;SDS011;43407;51.828;-2.298;2023-02-28T16:52:02;3.20;;;2.90;;
34896;SDS011;43407;51.828;-2.298;2023-02-28T16:54:28;2.97;;;2.63;;
34896;SDS011;43407;51.828;-2.298;2023-02-28T16:56:53;3.15;;;2.80;;
34896;SDS011;43407;51.828;-2.298;2023-02-28T16:59:21;3.42;;;2.70;;
34896;SDS011;43407;51.828;-2.298;2023-02-28T17:01:48;3.83;;;3.30;;
34896;SDS011;43407;51.828;-2.298;2023-02-28T17:04:14;5.45;;;2.95;;
34896;SDS011;43407;51.828;-2.298;2023-02-28T17:06:40;3.70;;;2.90;;
34896;SDS011;43407;51.828;-2.298;2023-02-28T17:09:08;4.32;;;3.00;;
34896;SDS011;43407;51.828;-2.298;2023-02-28T17:11:47;3.15;;;2.63;;
34896;SDS011;43407;51.828;-2.298;2023-02-28T17:14:13;4.57;;;3.10;;
34896;SDS011;43407;51.828;-2.298;2023-02-28T17:16:39;3.50;;;3.00;;